Time;durP1;ratioP1;P1;durP2;ratioP2;P2;SDS_P1;SDS_P2;PMS_P1;PMS_P2;Temp;Humidity;BMP_temperature;BMP_pressure;BME280_temperature;BME280_humidity;BME280_pressure;Samples;Min_cycle;Max_cycle;Signal;HPM_P1;HPM_P2
2024/03/01 00:00:54;;;;;;;19.48;3.42;;;;;;;;;;5073975;28;20040;-40
2024/03/01 00:03:21;;;;;;;27.13;3.45;;;;;;;;;;5073737;28;20098;-39
2024/03/01 00:05:48;;;;;;;23.23;3.22;;;;;;;;;;5073899;28;20535;-39
2024/03/01 00:08:15;;;;;;;26.92;4.10;;;;;;;;;;5068980;28;20087;-37
2024/03/01 00:10:42;;;;;;;18.30;3.08;;;;;;;;;;5073986;28;20032;-40
2024/03/01 00:13:09;;;;;;;17.10;3.58;;;;;;;;;;5074084;28;20025;-39
2024/03/01 00:15:37;;;;;;;21.15;3.65;;;;;;;;;;5072348;28;20028;-41
2024/03/01 00:18:05;;;;;;;17.73;4.05;;;;;;;;;;5069998;28;20058;-40
2024/03/01 00:20:33;;;;;;;22.42;3.67;;;;;;;;;;5072220;28;20051;-40
2024/03/01 00:23:00;;;;;;;21.17;3.72;;;;;;;;;;5072103;28;20544;-40
2024/03/01 00:25:27;;;;;;;21.80;3.25;;;;;;;;;;5071112;28;20131;-41
2024/03/01 00:27:54;;;;;;;22.48;3.13;;;;;;;;;;5070351;28;20036;-39
2024/03/01 00:30:21;;;;;;;22.33;4.25;;;;;;;;;;5071073;28;20028;-41
2024/03/01 00:32:48;;;;;;;16.35;3.10;;;;;;;;;;5072920;28;20065;-39
2024/03/01 00:35:16;;;;;;;14.68;2.72;;;;;;;;;;5070460;28;20067;-40
2024/03/01 00:37:43;;;;;;;16.60;2.38;;;;;;;;;;5068498;28;20693;-40
2024/03/01 00:40:10;;;;;;;18.58;2.60;;;;;;;;;;5070752;28;20029;-39
2024/03/01 00:42:36;;;;;;;27.05;2.58;;;;;;;;;;5070452;28;20525;-40
2024/03/01 00:45:04;;;;;;;16.02;2.22;;;;;;;;;;5070677;28;20051;-40
2024/03/01 00:47:31;;;;;;;18.52;2.33;;;;;;;;;;5072388;28;20025;-40
2024/03/01 00:49:57;;;;;;;14.15;2.28;;;;;;;;;;5072594;28;20034;-39
2024/03/01 00:52:25;;;;;;;15.23;2.35;;;;;;;;;;5072426;28;20020;-40
2024/03/01 00:54:52;;;;;;;12.60;2.30;;;;;;;;;;5072309;28;20032;-40
2024/03/01 00:57:19;;;;;;;18.33;2.30;;;;;;;;;;5071654;28;20016;-39
2024/03/01 00:59:46;;;;;;;10.85;2.38;;;;;;;;;;5072614;28;20116;-39
2024/03/01 01:02:13;;;;;;;20.98;2.75;;;;;;;;;;5072644;28;20024;-40
2024/03/01 01:04:40;;;;;;;19.95;2.45;;;;;;;;;;5072089;28;20119;-38
2024/03/01 01:07:07;;;;;;;25.52;3.35;;;;;;;;;;5072570;28;20073;-40
2024/03/01 01:09:34;;;;;;;14.63;2.20;;;;;;;;;;5069178;28;20417;-41
2024/03/01 01:12:01;;;;;;;18.88;2.20;;;;;;;;;;5053019;28;20041;-42
2024/03/01 01:14:28;;;;;;;13.63;1.88;;;;;;;;;;5059214;28;20063;-41
2024/03/01 01:16:55;;;;;;;9.73;1.67;;;;;;;;;;5072591;28;20029;-42
2024/03/01 01:19:22;;;;;;;13.48;2.00;;;;;;;;;;5070776;28;20475;-42
2024/03/01 01:21:49;;;;;;;11.75;1.90;;;;;;;;;;5054022;28;20115;-42
2024/03/01 01:24:16;;;;;;;9.57;1.63;;;;;;;;;;5069271;28;20038;-42
2024/03/01 01:26:43;;;;;;;11.00;1.98;;;;;;;;;;5062900;28;20028;-41
2024/03/01 01:29:10;;;;;;;8.63;1.55;;;;;;;;;;5058368;28;20029;-41
2024/03/01 01:31:37;;;;;;;12.20;1.42;;;;;;;;;;5069813;28;20020;-42
2024/03/01 01:34:05;;;;;;;10.65;1.70;;;;;;;;;;5060791;28;20090;-42
2024/03/01 01:36:32;;;;;;;10.45;2.03;;;;;;;;;;5060699;28;20033;-41
2024/03/01 01:38:59;;;;;;;16.48;2.42;;;;;;;;;;5059190;28;20124;-41
2024/03/01 01:41:26;;;;;;;19.33;2.33;;;;;;;;;;5061186;28;20069;-41
2024/03/01 01:43:53;;;;;;;14.77;1.95;;;;;;;;;;5067966;28;20037;-42
2024/03/01 01:46:20;;;;;;;12.63;1.98;;;;;;;;;;5070510;28;20061;-42
2024/03/01 01:48:47;;;;;;;14.18;2.47;;;;;;;;;;5059698;28;20033;-42
2024/03/01 01:51:15;;;;;;;18.77;2.13;;;;;;;;;;5061038;28;20031;-41
2024/03/01 01:53:43;;;;;;;14.00;2.20;;;;;;;;;;5066346;28;20127;-41
2024/03/01 01:56:11;;;;;;;10.02;2.05;;;;;;;;;;5071385;28;20024;-41
2024/03/01 01:58:38;;;;;;;17.83;2.42;;;;;;;;;;5064443;28;20028;-41
2024/03/01 02:01:07;;;;;;;19.30;2.90;;;;;;;;;;5069616;28;20051;-42
2024/03/01 02:03:38;;;;;;;9.90;1.85;;;;;;;;;;5070003;28;20044;-42
2024/03/01 02:06:06;;;;;;;15.00;2.28;;;;;;;;;;5058665;28;20487;-42
2024/03/01 02:08:39;;;;;;;23.17;2.55;;;;;;;;;;5069175;28;20040;-41
2024/03/01 02:11:07;;;;;;;14.05;2.10;;;;;;;;;;5051899;28;20386;-39
2024/03/01 02:13:34;;;;;;;13.57;1.55;;;;;;;;;;5068053;28;20043;-44
2024/03/01 02:16:01;;;;;;;13.52;2.28;;;;;;;;;;5069195;28;20021;-42
2024/03/01 02:18:28;;;;;;;12.70;1.42;;;;;;;;;;5069359;28;20099;-41
2024/03/01 02:20:55;;;;;;;4.75;1.42;;;;;;;;;;5069433;28;20039;-42
2024/03/01 02:23:22;;;;;;;10.52;1.60;;;;;;;;;;5069885;28;20025;-41
2024/03/01 02:25:50;;;;;;;13.10;1.65;;;;;;;;;;5070051;28;20028;-41
2024/03/01 02:28:17;;;;;;;10.80;1.45;;;;;;;;;;5069933;28;20035;-41
2024/03/01 02:30:47;;;;;;;11.45;1.50;;;;;;;;;;5070474;28;20032;-41
2024/03/01 02:33:14;;;;;;;8.18;1.67;;;;;;;;;;5050284;28;20052;-41
2024/03/01 02:35:41;;;;;;;13.27;1.48;;;;;;;;;;5070147;28;20047;-42
2024/03/01 02:38:08;;;;;;;10.35;1.30;;;;;;;;;;5071231;28;20374;-42
2024/03/01 02:40:35;;;;;;;9.55;1.48;;;;;;;;;;5071099;28;20032;-40
2024/03/01 02:43:02;;;;;;;10.35;1.40;;;;;;;;;;5070044;28;20052;-42
2024/03/01 02:45:29;;;;;;;11.27;1.60;;;;;;;;;;5070221;28;20024;-42
2024/03/01 02:47:56;;;;;;;7.03;1.30;;;;;;;;;;5070555;28;20025;-43
2024/03/01 02:50:24;;;;;;;9.38;1.55;;;;;;;;;;5070534;28;20032;-42
2024/03/01 02:52:51;;;;;;;6.45;1.10;;;;;;;;;;5070231;28;20025;-42
2024/03/01 02:55:21;;;;;;;7.93;1.45;;;;;;;;;;5070712;28;20033;-41
2024/03/01 02:57:51;;;;;;;8.02;1.20;;;;;;;;;;5070170;28;20066;-40
2024/03/01 03:00:19;;;;;;;6.68;1.25;;;;;;;;;;5071330;28;20423;-40
2024/03/01 03:02:45;;;;;;;8.05;1.42;;;;;;;;;;5071404;28;20024;-41
2024/03/01 03:05:13;;;;;;;7.13;1.40;;;;;;;;;;5071389;28;20076;-40
2024/03/01 03:07:40;;;;;;;7.10;1.10;;;;;;;;;;5071246;28;20027;-40
2024/03/01 03:10:07;;;;;;;8.77;1.30;;;;;;;;;;5070586;28;20075;-41
2024/03/01 03:12:34;;;;;;;9.23;1.10;;;;;;;;;;5070622;28;20071;-42
2024/03/01 03:15:07;;;;;;;12.43;1.20;;;;;;;;;;5070559;28;20463;-41
2024/03/01 03:17:40;;;;;;;6.55;1.13;;;;;;;;;;5052572;28;20094;-40
2024/03/01 03:20:10;;;;;;;11.10;1.15;;;;;;;;;;5066806;28;20024;-42
2024/03/01 03:22:38;;;;;;;11.50;1.42;;;;;;;;;;5070669;28;20028;-41
2024/03/01 03:25:05;;;;;;;9.52;1.40;;;;;;;;;;5070585;28;20033;-42
2024/03/01 03:27:32;;;;;;;13.18;1.50;;;;;;;;;;5070401;28;20554;-40
2024/03/01 03:29:59;;;;;;;10.15;1.70;;;;;;;;;;5070478;28;20033;-42
2024/03/01 03:32:27;;;;;;;11.55;1.70;;;;;;;;;;5070412;28;20024;-42
2024/03/01 03:34:53;;;;;;;11.82;1.77;;;;;;;;;;5070228;28;20057;-41
2024/03/01 03:37:20;;;;;;;13.13;1.55;;;;;;;;;;5070296;28;20029;-42
2024/03/01 03:39:47;;;;;;;9.25;1.20;;;;;;;;;;5070254;28;20077;-41
2024/03/01 03:42:14;;;;;;;6.57;1.20;;;;;;;;;;5070828;28;20025;-41
2024/03/01 03:44:41;;;;;;;9.02;1.48;;;;;;;;;;5070823;28;20077;-42
2024/03/01 03:47:08;;;;;;;10.65;1.55;;;;;;;;;;5070960;28;20021;-41
2024/03/01 03:49:38;;;;;;;10.75;1.52;;;;;;;;;;5070913;28;20482;-41
2024/03/01 03:52:05;;;;;;;10.68;1.70;;;;;;;;;;5070944;28;20032;-41
2024/03/01 03:54:32;;;;;;;11.75;1.13;;;;;;;;;;5070897;28;20032;-41
2024/03/01 03:56:59;;;;;;;9.90;1.25;;;;;;;;;;5070795;28;20394;-41
2024/03/01 03:59:26;;;;;;;8.30;1.10;;;;;;;;;;5070707;28;20033;-42
2024/03/01 04:01:53;;;;;;;10.35;1.27;;;;;;;;;;5070656;28;20040;-42
2024/03/01 04:04:20;;;;;;;11.07;1.30;;;;;;;;;;5070773;28;20131;-42
2024/03/01 04:06:57;;;;;;;7.97;1.30;;;;;;;;;;5070849;28;20102;-41
2024/03/01 04:09:39;;;;;;;8.98;1.42;;;;;;;;;;5053944;28;20025;-44
2024/03/01 04:12:10;;;;;;;8.73;1.35;;;;;;;;;;5056408;28;20029;-44
2024/03/01 04:14:39;;;;;;;6.22;1.00;;;;;;;;;;5056473;28;20035;-44
2024/03/01 04:17:06;;;;;;;9.98;1.33;;;;;;;;;;5074189;28;20521;-43
2024/03/01 04:19:33;;;;;;;4.20;1.02;;;;;;;;;;5056135;28;20035;-43
2024/03/01 04:22:13;;;;;;;8.15;1.30;;;;;;;;;;5055285;28;20045;-43
2024/03/01 04:24:43;;;;;;;6.53;1.17;;;;;;;;;;5056103;28;20098;-43
2024/03/01 04:27:12;;;;;;;7.57;1.10;;;;;;;;;;5051081;28;20475;-43
2024/03/01 04:29:42;;;;;;;5.35;1.25;;;;;;;;;;5074014;28;20028;-43
2024/03/01 04:32:10;;;;;;;9.55;1.35;;;;;;;;;;5056087;28;20394;-49
2024/03/01 04:34:38;;;;;;;9.00;1.30;;;;;;;;;;5074086;28;20072;-55
2024/03/01 04:37:05;;;;;;;6.00;0.95;;;;;;;;;;5074019;28;20032;-43
2024/03/01 04:39:32;;;;;;;8.88;1.00;;;;;;;;;;5073870;28;20050;-42
2024/03/01 04:42:00;;;;;;;9.45;1.20;;;;;;;;;;5073662;28;20067;-42
2024/03/01 04:44:27;;;;;;;7.50;1.33;;;;;;;;;;5073645;28;20051;-40
2024/03/01 04:46:56;;;;;;;14.68;1.40;;;;;;;;;;5073680;28;20573;-41
2024/03/01 04:49:23;;;;;;;7.03;1.40;;;;;;;;;;5073495;28;20020;-40
2024/03/01 04:51:50;;;;;;;11.25;1.02;;;;;;;;;;5073622;28;20063;-41
2024/03/01 04:54:17;;;;;;;7.38;1.17;;;;;;;;;;5073190;28;20044;-41
2024/03/01 04:56:44;;;;;;;13.70;1.52;;;;;;;;;;5073462;28;20032;-41
2024/03/01 04:59:11;;;;;;;9.77;1.25;;;;;;;;;;5073438;28;20059;-41
2024/03/01 05:01:40;;;;;;;7.00;1.00;;;;;;;;;;5073474;28;20103;-41
2024/03/01 05:04:08;;;;;;;9.38;1.10;;;;;;;;;;5073127;28;20032;-40
2024/03/01 05:06:39;;;;;;;11.25;1.30;;;;;;;;;;5073050;28;20036;-40
2024/03/01 05:09:07;;;;;;;8.75;1.30;;;;;;;;;;5073239;28;20021;-41
2024/03/01 05:11:35;;;;;;;4.97;1.00;;;;;;;;;;5073223;28;20039;-41
2024/03/01 05:14:06;;;;;;;8.82;1.30;;;;;;;;;;5072834;28;20036;-41
2024/03/01 05:16:33;;;;;;;8.70;1.27;;;;;;;;;;5073123;28;20110;-41
2024/03/01 05:19:00;;;;;;;8.10;1.13;;;;;;;;;;5054996;28;20028;-41
2024/03/01 05:21:27;;;;;;;5.43;1.08;;;;;;;;;;5072556;28;20478;-41
2024/03/01 05:23:54;;;;;;;7.38;1.08;;;;;;;;;;5072990;28;20047;-41
2024/03/01 05:26:21;;;;;;;7.55;1.35;;;;;;;;;;5072720;28;20029;-41
2024/03/01 05:28:48;;;;;;;3.72;0.90;;;;;;;;;;5072844;28;20040;-41
2024/03/01 05:31:15;;;;;;;6.43;1.15;;;;;;;;;;5072656;28;20368;-41
2024/03/01 05:33:42;;;;;;;6.68;0.77;;;;;;;;;;5072715;28;20024;-41
2024/03/01 05:36:09;;;;;;;8.25;1.00;;;;;;;;;;5072636;28;20061;-41
2024/03/01 05:38:39;;;;;;;7.13;0.90;;;;;;;;;;5054586;28;20394;-41
2024/03/01 05:41:07;;;;;;;6.75;1.00;;;;;;;;;;5072510;28;20112;-41
2024/03/01 05:43:34;;;;;;;5.88;0.80;;;;;;;;;;5072421;28;20040;-42
2024/03/01 05:46:04;;;;;;;6.35;0.88;;;;;;;;;;5072286;28;20032;-42
2024/03/01 05:48:31;;;;;;;6.63;1.00;;;;;;;;;;5072263;28;20068;-42
2024/03/01 05:50:58;;;;;;;8.13;1.30;;;;;;;;;;5072529;28;20024;-42
2024/03/01 05:53:26;;;;;;;4.25;0.90;;;;;;;;;;5072070;28;20021;-42
2024/03/01 05:55:53;;;;;;;7.13;0.90;;;;;;;;;;5072363;28;20033;-42
2024/03/01 05:58:20;;;;;;;11.88;1.10;;;;;;;;;;5072059;28;20036;-42
2024/03/01 06:00:47;;;;;;;9.52;1.20;;;;;;;;;;5070971;28;20078;-42
2024/03/01 06:03:14;;;;;;;6.50;1.05;;;;;;;;;;5072139;28;20025;-41
2024/03/01 06:05:41;;;;;;;7.57;1.00;;;;;;;;;;5072107;28;20025;-42
2024/03/01 06:08:08;;;;;;;4.75;0.93;;;;;;;;;;5072109;28;20059;-42
2024/03/01 06:10:35;;;;;;;5.63;1.23;;;;;;;;;;5072052;28;20067;-42
2024/03/01 06:13:02;;;;;;;10.20;1.20;;;;;;;;;;5071901;28;20836;-42
2024/03/01 06:15:29;;;;;;;3.75;0.80;;;;;;;;;;5071926;28;20032;-42
2024/03/01 06:17:56;;;;;;;7.28;1.00;;;;;;;;;;5071959;28;20043;-42
2024/03/01 06:20:23;;;;;;;7.50;1.17;;;;;;;;;;5071941;28;20036;-42
2024/03/01 06:22:50;;;;;;;7.05;1.00;;;;;;;;;;5071908;28;20107;-42
2024/03/01 06:25:17;;;;;;;6.63;1.00;;;;;;;;;;5071693;28;20035;-42
2024/03/01 06:27:44;;;;;;;4.50;0.82;;;;;;;;;;5071865;28;20155;-43
2024/03/01 06:30:11;;;;;;;6.65;1.00;;;;;;;;;;5072018;28;20021;-46
2024/03/01 06:32:42;;;;;;;6.15;1.10;;;;;;;;;;5070942;28;20032;-52
2024/03/01 06:35:12;;;;;;;2.78;0.65;;;;;;;;;;5053972;28;20036;-44
2024/03/01 06:37:40;;;;;;;8.73;1.20;;;;;;;;;;5054244;28;20037;-44
2024/03/01 06:40:09;;;;;;;5.35;0.93;;;;;;;;;;5053674;28;20126;-43
2024/03/01 06:42:46;;;;;;;11.07;1.23;;;;;;;;;;5053375;28;20499;-49
2024/03/01 06:45:13;;;;;;;4.68;0.95;;;;;;;;;;5053913;28;20043;-45
2024/03/01 06:47:41;;;;;;;8.35;1.05;;;;;;;;;;5071478;28;20039;-46
2024/03/01 06:50:09;;;;;;;3.80;0.90;;;;;;;;;;5053521;28;20036;-45
2024/03/01 06:52:41;;;;;;;4.90;0.82;;;;;;;;;;5071183;28;20406;-47
2024/03/01 06:55:10;;;;;;;4.53;0.90;;;;;;;;;;5053274;28;20041;-48
2024/03/01 06:57:38;;;;;;;8.02;1.00;;;;;;;;;;5053706;28;20040;-43
2024/03/01 07:00:06;;;;;;;5.57;1.08;;;;;;;;;;5053546;28;20059;-42
2024/03/01 07:02:33;;;;;;;7.57;0.80;;;;;;;;;;5071248;28;20097;-42
2024/03/01 07:05:00;;;;;;;4.85;0.80;;;;;;;;;;5071309;28;20028;-43
2024/03/01 07:07:27;;;;;;;4.72;0.93;;;;;;;;;;5071405;28;20021;-42
2024/03/01 07:09:54;;;;;;;6.57;0.95;;;;;;;;;;5071296;28;20040;-42
2024/03/01 07:12:21;;;;;;;3.75;0.80;;;;;;;;;;5071332;28;20445;-42
2024/03/01 07:14:48;;;;;;;8.10;1.20;;;;;;;;;;5071197;28;20075;-42
2024/03/01 07:17:15;;;;;;;4.28;1.00;;;;;;;;;;5071118;28;20037;-42
2024/03/01 07:19:42;;;;;;;5.05;1.10;;;;;;;;;;5071326;28;20101;-42
2024/03/01 07:22:09;;;;;;;6.15;1.02;;;;;;;;;;5071283;28;20036;-42
2024/03/01 07:24:35;;;;;;;4.18;0.88;;;;;;;;;;5071227;28;20025;-42
2024/03/01 07:27:02;;;;;;;3.72;1.00;;;;;;;;;;5071099;28;20398;-42
2024/03/01 07:29:29;;;;;;;3.00;0.70;;;;;;;;;;5071172;28;20028;-41
2024/03/01 07:31:56;;;;;;;4.00;1.02;;;;;;;;;;5071172;28;20124;-41
2024/03/01 07:34:23;;;;;;;4.47;1.05;;;;;;;;;;5071061;28;20640;-41
2024/03/01 07:36:50;;;;;;;5.05;0.77;;;;;;;;;;5071090;28;20078;-41
2024/03/01 07:39:17;;;;;;;5.43;0.90;;;;;;;;;;5071215;28;20044;-41
2024/03/01 07:41:44;;;;;;;9.02;1.05;;;;;;;;;;5071024;28;20037;-42
2024/03/01 07:44:11;;;;;;;4.85;1.00;;;;;;;;;;5073416;28;20036;-43
2024/03/01 07:46:41;;;;;;;5.80;1.35;;;;;;;;;;5074765;28;20039;-42
2024/03/01 07:49:08;;;;;;;6.00;0.90;;;;;;;;;;5074652;28;20055;-43
2024/03/01 07:51:35;;;;;;;6.45;1.00;;;;;;;;;;5074768;28;20028;-42
2024/03/01 07:54:02;;;;;;;4.07;0.77;;;;;;;;;;5074548;28;20051;-41
2024/03/01 07:56:29;;;;;;;5.38;1.45;;;;;;;;;;5074523;28;20090;-41
2024/03/01 07:59:02;;;;;;;4.47;1.08;;;;;;;;;;5074504;28;20032;-41
2024/03/01 08:01:29;;;;;;;6.57;1.42;;;;;;;;;;5074559;28;20021;-41
2024/03/01 08:03:56;;;;;;;5.30;1.00;;;;;;;;;;5056573;28;20395;-41
2024/03/01 08:06:24;;;;;;;2.97;0.73;;;;;;;;;;5074426;28;20028;-41
2024/03/01 08:08:51;;;;;;;4.50;0.80;;;;;;;;;;5074369;28;20037;-41
2024/03/01 08:11:38;;;;;;;3.22;0.95;;;;;;;;;;5074429;28;20490;-41
2024/03/01 08:14:07;;;;;;;7.03;1.40;;;;;;;;;;5074065;28;20090;-41
2024/03/01 08:16:39;;;;;;;4.32;1.00;;;;;;;;;;5074102;28;20040;-43
2024/03/01 08:19:06;;;;;;;6.05;0.90;;;;;;;;;;5074049;28;20032;-42
2024/03/01 08:21:33;;;;;;;3.17;1.02;;;;;;;;;;5074232;28;20024;-42
2024/03/01 08:24:01;;;;;;;5.70;0.95;;;;;;;;;;5074182;28;20036;-42
2024/03/01 08:26:28;;;;;;;4.32;1.05;;;;;;;;;;5073915;28;20032;-42
2024/03/01 08:29:00;;;;;;;5.15;1.27;;;;;;;;;;5073964;28;20029;-41
2024/03/01 08:31:34;;;;;;;11.00;1.20;;;;;;;;;;5073946;28;20529;-43
2024/03/01 08:34:05;;;;;;;4.05;0.98;;;;;;;;;;5073798;28;20293;-41
2024/03/01 08:36:32;;;;;;;5.03;1.10;;;;;;;;;;5073829;28;20097;-42
2024/03/01 08:39:01;;;;;;;8.07;1.48;;;;;;;;;;5073914;28;20024;-42
2024/03/01 08:41:28;;;;;;;7.18;1.33;;;;;;;;;;5073754;28;20032;-42
2024/03/01 08:43:57;;;;;;;4.97;1.00;;;;;;;;;;5073557;28;20052;-41
2024/03/01 08:46:30;;;;;;;6.78;1.10;;;;;;;;;;5073779;28;20401;-42
2024/03/01 08:48:58;;;;;;;5.82;1.17;;;;;;;;;;5073587;28;20033;-42
2024/03/01 08:51:26;;;;;;;7.43;0.95;;;;;;;;;;5073546;28;20024;-42
2024/03/01 08:54:00;;;;;;;4.70;1.00;;;;;;;;;;5073397;28;20041;-41
2024/03/01 08:56:34;;;;;;;8.20;1.50;;;;;;;;;;5072764;28;20040;-41
2024/03/01 08:59:02;;;;;;;5.82;1.30;;;;;;;;;;5073399;28;20035;-41
2024/03/01 09:01:45;;;;;;;8.18;1.20;;;;;;;;;;5073417;28;20033;-41
2024/03/01 09:04:13;;;;;;;5.75;1.25;;;;;;;;;;5073321;28;20115;-41
2024/03/01 09:06:41;;;;;;;4.40;0.95;;;;;;;;;;5073408;28;20025;-41
2024/03/01 09:09:09;;;;;;;5.05;0.88;;;;;;;;;;5073333;28;20414;-42
2024/03/01 09:11:37;;;;;;;10.48;1.63;;;;;;;;;;5073123;28;20033;-42
2024/03/01 09:14:04;;;;;;;4.05;0.88;;;;;;;;;;5073227;28;20433;-41
2024/03/01 09:16:31;;;;;;;7.20;1.10;;;;;;;;;;5073119;28;20402;-42
2024/03/01 09:18:58;;;;;;;5.15;1.10;;;;;;;;;;5073093;28;20471;-42
2024/03/01 09:21:33;;;;;;;10.10;1.20;;;;;;;;;;5073151;28;20021;-42
2024/03/01 09:24:01;;;;;;;7.90;1.25;;;;;;;;;;5072862;28;20040;-42
2024/03/01 09:26:28;;;;;;;5.70;1.48;;;;;;;;;;5072822;28;20048;-42
2024/03/01 09:28:59;;;;;;;7.75;1.67;;;;;;;;;;5072692;28;20099;-40
2024/03/01 09:31:26;;;;;;;7.68;1.40;;;;;;;;;;5072967;28;20107;-41
2024/03/01 09:33:53;;;;;;;7.10;1.23;;;;;;;;;;5072796;28;20497;-41
2024/03/01 09:36:20;;;;;;;8.15;1.38;;;;;;;;;;5072424;28;20041;-42
2024/03/01 09:38:51;;;;;;;5.68;1.48;;;;;;;;;;5072312;28;20040;-42
2024/03/01 09:41:38;;;;;;;10.35;1.50;;;;;;;;;;5072521;28;20024;-41
2024/03/01 09:44:16;;;;;;;8.07;1.60;;;;;;;;;;5071683;28;20047;-41
2024/03/01 09:47:09;;;;;;;5.32;1.38;;;;;;;;;;5070355;28;20234;-41
2024/03/01 09:49:49;;;;;;;8.18;1.30;;;;;;;;;;5031196;28;20040;-42
2024/03/01 09:52:19;;;;;;;9.25;1.85;;;;;;;;;;5069144;28;20024;-41
2024/03/01 09:54:50;;;;;;;15.73;1.98;;;;;;;;;;5071641;28;20088;-41
2024/03/01 09:57:17;;;;;;;13.30;2.15;;;;;;;;;;5069358;28;20043;-41
2024/03/01 09:59:47;;;;;;;8.02;1.70;;;;;;;;;;5071041;28;20090;-41
2024/03/01 10:02:41;;;;;;;10.80;1.90;;;;;;;;;;5069053;28;20382;-42
2024/03/01 10:05:16;;;;;;;11.25;1.98;;;;;;;;;;5066566;28;20037;-41
2024/03/01 10:07:45;;;;;;;9.85;1.98;;;;;;;;;;5070017;28;20070;-41
2024/03/01 10:10:34;;;;;;;13.45;2.05;;;;;;;;;;5071434;28;20463;-41
2024/03/01 10:13:06;;;;;;;8.88;1.70;;;;;;;;;;5069865;28;20846;-42
2024/03/01 10:15:43;;;;;;;13.80;2.20;;;;;;;;;;5071082;28;20569;-42
2024/03/01 10:18:32;;;;;;;20.00;2.50;;;;;;;;;;5071938;28;20089;-41
2024/03/01 10:21:18;;;;;;;13.35;2.47;;;;;;;;;;5072025;28;20020;-41
2024/03/01 10:23:50;;;;;;;21.90;2.70;;;;;;;;;;5071679;28;20017;-42
2024/03/01 10:26:32;;;;;;;17.35;2.50;;;;;;;;;;5071768;28;20416;-42
2024/03/01 10:29:15;;;;;;;13.80;2.05;;;;;;;;;;5071974;28;20483;-41
2024/03/01 10:31:52;;;;;;;16.83;2.10;;;;;;;;;;5071968;28;20024;-42
2024/03/01 10:34:27;;;;;;;20.30;2.70;;;;;;;;;;5071611;28;20502;-42
2024/03/01 10:36:56;;;;;;;18.98;2.45;;;;;;;;;;5071316;28;20028;-43
2024/03/01 10:39:32;;;;;;;12.45;2.15;;;;;;;;;;5071124;28;20032;-42
2024/03/01 10:42:14;;;;;;;13.55;2.00;;;;;;;;;;5071496;28;20383;-42
2024/03/01 10:44:50;;;;;;;12.75;2.88;;;;;;;;;;5071119;28;20040;-41
2024/03/01 10:47:24;;;;;;;71.65;45.85;;;;;;;;;;5068622;28;20052;-42
2024/03/01 10:49:59;;;;;;;66.82;40.08;;;;;;;;;;5069893;28;20032;-41
2024/03/01 10:52:30;;;;;;;43.03;25.90;;;;;;;;;;5068329;28;20549;-42
2024/03/01 10:54:57;;;;;;;32.08;17.77;;;;;;;;;;5070688;28;20036;-42
2024/03/01 10:57:24;;;;;;;28.80;13.50;;;;;;;;;;5068357;28;20095;-42
2024/03/01 11:00:18;;;;;;;19.83;9.75;;;;;;;;;;5070479;28;20466;-42
2024/03/01 11:02:48;;;;;;;19.20;6.32;;;;;;;;;;5063902;28;20068;-42
2024/03/01 11:05:24;;;;;;;13.35;4.68;;;;;;;;;;5070288;28;20020;-41
2024/03/01 11:08:01;;;;;;;12.30;4.50;;;;;;;;;;5068701;28;20024;-41
2024/03/01 11:10:35;;;;;;;13.75;3.28;;;;;;;;;;5070204;28;20029;-42
2024/03/01 11:13:02;;;;;;;12.40;3.38;;;;;;;;;;5071189;28;20509;-41
2024/03/01 11:15:30;;;;;;;15.30;2.88;;;;;;;;;;5071349;28;20036;-41
2024/03/01 11:17:58;;;;;;;15.88;2.95;;;;;;;;;;5072213;28;20032;-41
2024/03/01 11:20:29;;;;;;;13.10;3.30;;;;;;;;;;5075537;28;20055;-41
2024/03/01 11:23:04;;;;;;;13.07;2.78;;;;;;;;;;5075440;28;20562;-41
2024/03/01 11:25:37;;;;;;;9.93;2.63;;;;;;;;;;5075286;28;20055;-41
2024/03/01 11:28:05;;;;;;;11.00;2.63;;;;;;;;;;5075285;28;20093;-41
2024/03/01 11:30:35;;;;;;;15.57;3.13;;;;;;;;;;5075147;28;20052;-41
2024/03/01 11:33:05;;;;;;;12.73;2.42;;;;;;;;;;5075248;28;20031;-41
2024/03/01 11:35:48;;;;;;;14.10;2.80;;;;;;;;;;5074898;28;20082;-41
2024/03/01 11:38:25;;;;;;;12.93;2.85;;;;;;;;;;5075026;28;20041;-41
2024/03/01 11:41:10;;;;;;;12.30;2.90;;;;;;;;;;5074990;28;20102;-41
2024/03/01 11:44:02;;;;;;;22.13;2.95;;;;;;;;;;5074851;28;20037;-41
2024/03/01 11:46:55;;;;;;;12.73;3.17;;;;;;;;;;5074872;28;20028;-42
2024/03/01 11:49:22;;;;;;;16.83;3.03;;;;;;;;;;5074944;28;20029;-41
2024/03/01 11:52:08;;;;;;;15.73;2.67;;;;;;;;;;5074936;28;20020;-42
2024/03/01 11:54:54;;;;;;;11.40;2.53;;;;;;;;;;5056594;28;20475;-43
2024/03/01 11:57:30;;;;;;;14.02;2.45;;;;;;;;;;5074608;28;20489;-42
2024/03/01 12:00:12;;;;;;;11.52;2.70;;;;;;;;;;5074671;28;20040;-42
2024/03/01 12:02:55;;;;;;;12.43;2.60;;;;;;;;;;5074647;28;20029;-42
2024/03/01 12:05:31;;;;;;;11.90;2.80;;;;;;;;;;5074456;28;20039;-42
2024/03/01 12:08:07;;;;;;;15.60;2.60;;;;;;;;;;5074805;28;20489;-41
2024/03/01 12:10:34;;;;;;;12.40;2.75;;;;;;;;;;5074346;28;20040;-41
2024/03/01 12:13:08;;;;;;;18.50;2.70;;;;;;;;;;5074070;28;20044;-41
2024/03/01 12:15:39;;;;;;;18.20;2.72;;;;;;;;;;5073323;28;20024;-42
2024/03/01 12:18:19;;;;;;;17.03;2.73;;;;;;;;;;5072564;28;20110;-41
2024/03/01 12:21:06;;;;;;;15.02;3.40;;;;;;;;;;5073205;28;20107;-41
2024/03/01 12:23:41;;;;;;;16.42;2.85;;;;;;;;;;5070873;28;20078;-42
2024/03/01 12:26:09;;;;;;;13.07;2.80;;;;;;;;;;5072423;28;20028;-41
2024/03/01 12:28:54;;;;;;;13.25;2.75;;;;;;;;;;5074059;28;20032;-44
2024/03/01 12:31:24;;;;;;;9.93;2.50;;;;;;;;;;5073024;28;20093;-44
2024/03/01 12:34:02;;;;;;;19.83;2.97;;;;;;;;;;5073885;28;20021;-43
2024/03/01 12:36:42;;;;;;;23.17;3.33;;;;;;;;;;5088622;28;20495;-43
2024/03/01 12:39:13;;;;;;;21.65;3.03;;;;;;;;;;5053985;28;20483;-43
2024/03/01 12:41:40;;;;;;;24.13;3.20;;;;;;;;;;5057058;28;20218;-44
2024/03/01 12:44:08;;;;;;;20.58;2.95;;;;;;;;;;5073351;28;20123;-43
2024/03/01 12:46:45;;;;;;;24.08;3.00;;;;;;;;;;5073439;28;20447;-43
2024/03/01 12:49:33;;;;;;;12.60;2.60;;;;;;;;;;5073881;28;20032;-43
2024/03/01 12:52:18;;;;;;;15.43;2.55;;;;;;;;;;5073588;28;20390;-44
2024/03/01 12:54:50;;;;;;;14.77;2.95;;;;;;;;;;5073520;28;20059;-43
2024/03/01 12:57:38;;;;;;;21.17;2.88;;;;;;;;;;5073705;28;20537;-43
2024/03/01 13:00:15;;;;;;;11.25;2.63;;;;;;;;;;5073579;28;20029;-43
2024/03/01 13:02:54;;;;;;;14.93;2.65;;;;;;;;;;5073556;28;20507;-43
2024/03/01 13:05:37;;;;;;;14.70;2.80;;;;;;;;;;5073386;28;20063;-44
2024/03/01 13:08:10;;;;;;;12.25;2.33;;;;;;;;;;5073478;28;20122;-43
2024/03/01 13:10:40;;;;;;;8.63;2.13;;;;;;;;;;5073465;28;20028;-43
2024/03/01 13:13:09;;;;;;;13.20;2.53;;;;;;;;;;5073211;28;20501;-43
2024/03/01 13:15:40;;;;;;;14.65;2.33;;;;;;;;;;5072984;28;20121;-44
2024/03/01 13:18:12;;;;;;;11.85;2.50;;;;;;;;;;5073268;28;20028;-44
2024/03/01 13:20:39;;;;;;;;;;;;;;;;;;5073621;28;20138;-44
2024/03/01 13:23:08;;;;;;;14.50;2.72;;;;;;;;;;5073111;28;19915;-44
2024/03/01 13:25:38;;;;;;;16.30;2.83;;;;;;;;;;5073091;28;20107;-43
2024/03/01 13:28:05;;;;;;;12.02;2.50;;;;;;;;;;5073123;28;20025;-43
2024/03/01 13:30:37;;;;;;;15.35;2.80;;;;;;;;;;5072877;28;20504;-44
2024/03/01 13:33:24;;;;;;;8.75;2.13;;;;;;;;;;5073060;28;20048;-44
2024/03/01 13:35:53;;;;;;;13.63;3.08;;;;;;;;;;5065493;28;20387;-44
2024/03/01 13:38:30;;;;;;;18.23;2.85;;;;;;;;;;5072874;28;20029;-43
2024/03/01 13:41:02;;;;;;;12.30;2.28;;;;;;;;;;5072487;28;20078;-43
2024/03/01 13:43:31;;;;;;;;;;;;;;;;;;5072917;28;20052;-44
2024/03/01 13:46:07;;;;;;;10.20;2.20;;;;;;;;;;5072644;28;19938;-44
2024/03/01 13:48:38;;;;;;;9.70;2.20;;;;;;;;;;5072637;28;20866;-44
2024/03/01 13:51:06;;;;;;;9.05;2.25;;;;;;;;;;5072496;28;20470;-44
2024/03/01 13:53:33;;;;;;;17.45;3.08;;;;;;;;;;5072313;28;20028;-44
2024/03/01 13:56:01;;;;;;;10.50;2.10;;;;;;;;;;5072551;28;20487;-44
2024/03/01 13:58:32;;;;;;;12.95;2.35;;;;;;;;;;5072261;28;20032;-44
2024/03/01 14:01:02;;;;;;;11.23;2.58;;;;;;;;;;5072304;28;20046;-43
2024/03/01 14:03:30;;;;;;;12.70;2.28;;;;;;;;;;5072355;28;20032;-44
2024/03/01 14:05:59;;;;;;;11.82;2.35;;;;;;;;;;5072329;28;20044;-44
2024/03/01 14:08:27;;;;;;;10.95;2.30;;;;;;;;;;5072132;28;20037;-44
2024/03/01 14:10:55;;;;;;;11.05;2.03;;;;;;;;;;5072326;28;20093;-44
2024/03/01 14:13:28;;;;;;;11.70;2.65;;;;;;;;;;5072012;28;20090;-44
2024/03/01 14:15:57;;;;;;;8.63;2.38;;;;;;;;;;5071821;28;20517;-44
2024/03/01 14:18:24;;;;;;;12.18;2.58;;;;;;;;;;5071939;28;20094;-44
2024/03/01 14:20:51;;;;;;;10.73;2.65;;;;;;;;;;5054053;28;20528;-44
2024/03/01 14:23:19;;;;;;;12.52;2.45;;;;;;;;;;5071907;28;20479;-43
2024/03/01 14:25:46;;;;;;;8.48;2.25;;;;;;;;;;5071745;28;20075;-43
2024/03/01 14:28:14;;;;;;;9.63;2.50;;;;;;;;;;5072036;28;20517;-44
2024/03/01 14:30:41;;;;;;;13.85;2.55;;;;;;;;;;5071729;28;20372;-44
2024/03/01 14:33:12;;;;;;;9.82;2.40;;;;;;;;;;5071901;28;20024;-44
2024/03/01 14:35:40;;;;;;;12.10;2.35;;;;;;;;;;5071676;28;20040;-44
2024/03/01 14:38:19;;;;;;;10.30;2.67;;;;;;;;;;5071747;28;20386;-44
2024/03/01 14:40:56;;;;;;;7.28;2.08;;;;;;;;;;5071760;28;20051;-44
2024/03/01 14:43:23;;;;;;;10.55;2.45;;;;;;;;;;5071437;28;20064;-44
2024/03/01 14:45:54;;;;;;;11.35;2.38;;;;;;;;;;5071625;28;20086;-44
2024/03/01 14:48:47;;;;;;;11.73;2.50;;;;;;;;;;5071695;28;20491;-44
2024/03/01 14:51:14;;;;;;;12.10;2.28;;;;;;;;;;5069967;28;20491;-44
2024/03/01 14:53:45;;;;;;;11.82;2.33;;;;;;;;;;5070883;28;20032;-44